Taneytown, Maryland
Current Conditions -  °F | °C
As of 11:55 AM on Saturday 22 Nov 2014 (Local Time) from KDMW Reporting Station
Clear Clear  
Wind Chill:   Ceiling: Unl
Heat Index:   Visibility: 10mi
Dew Point: -10°   Wind: 13mph
Humidity: 36%   Direction: 210°SSW
Pressure: 30.37"   Gusts: 20mph
Location:  39.66°N, 77.17°W
Report Text: KDMW 221655Z AUTO 21011G17KT 10SM CLR 04/M10 A3037 RMK AO2
Loading
Personal Weather Stations






























Interactive Weather Map New forecast layout! Learn more

10-Day Weather Forecast

Advertisements
Track Severe Weather on mobile